Time;durP1;ratioP1;P1;durP2;ratioP2;P2;SDS_P1;SDS_P2;PMS_P1;PMS_P2;Temp;Humidity;BMP_temperature;BMP_pressure;BME280_temperature;BME280_humidity;BME280_pressure;Samples;Min_cycle;Max_cycle;Signal;HPM_P1;HPM_P2
2022/12/29 00:01:17;;;;;;;4.53;1.60;;;8.70;99.90;;;;;;5003638;28;20104;-64
2022/12/29 00:03:46;;;;;;;3.67;1.70;;;8.70;99.90;;;;;;4996936;28;20134;-64
2022/12/29 00:06:11;;;;;;;4.93;1.50;;;8.60;99.90;;;;;;5003411;28;20088;-63
2022/12/29 00:08:40;;;;;;;3.50;1.73;;;8.60;99.90;;;;;;4992747;28;20034;-63
2022/12/29 00:11:11;;;;;;;3.72;1.65;;;8.50;99.90;;;;;;5016387;28;20121;-63
2022/12/29 00:16:21;;;;;;;5.22;1.50;;;8.30;99.90;;;;;;4991027;28;20046;-64
2022/12/29 00:18:47;;;;;;;4.43;1.50;;;8.20;99.90;;;;;;5005990;28;20037;-64
2022/12/29 00:35:43;;;;;;;3.03;1.80;;;7.70;99.90;;;;;;5008273;28;20834;-63
2022/12/29 00:46:23;;;;;;;7.05;3.30;;;7.30;99.90;;;;;;5008256;28;20049;-64
2022/12/29 00:51:33;;;;;;;5.18;2.55;;;7.10;99.90;;;;;;5008932;28;20112;-65
2022/12/29 00:53:59;;;;;;;5.55;2.40;;;7.10;99.90;;;;;;5005409;28;20129;-63
2022/12/29 00:56:25;;;;;;;3.70;1.90;;;7.10;99.90;;;;;;5007951;28;20087;-64
2022/12/29 00:58:50;;;;;;;4.22;2.28;;;7.10;99.90;;;;;;5003103;28;20439;-65
2022/12/29 01:01:16;;;;;;;4.20;2.30;;;7.20;99.90;;;;;;5021588;28;20676;-62
2022/12/29 01:03:42;;;;;;;3.80;1.52;;;7.20;99.90;;;;;;5002284;28;20080;-63
2022/12/29 01:06:09;;;;;;;4.75;1.80;;;7.20;99.90;;;;;;5008327;28;20084;-63
2022/12/29 01:08:36;;;;;;;3.80;1.50;;;7.30;99.90;;;;;;5006808;28;20026;-64
2022/12/29 01:11:07;;;;;;;3.78;1.60;;;7.50;99.90;;;;;;5008490;28;20376;-63
2022/12/29 01:13:34;;;;;;;6.90;1.60;;;7.60;99.90;;;;;;5006638;28;20109;-64
2022/12/29 01:15:59;;;;;;;6.85;1.75;;;7.80;99.90;;;;;;5010395;28;20049;-63
2022/12/29 01:18:26;;;;;;;3.90;1.90;;;7.80;99.90;;;;;;5007482;28;20031;-63
2022/12/29 01:21:02;;;;;;;5.15;2.17;;;7.80;99.90;;;;;;4997541;28;20038;-64
2022/12/29 01:23:28;;;;;;;7.13;2.22;;;7.70;99.90;;;;;;5006540;28;20050;-64
2022/12/29 01:25:54;;;;;;;5.22;2.22;;;7.70;99.90;;;;;;5007400;28;20129;-63
2022/12/29 01:28:19;;;;;;;4.80;1.85;;;7.70;99.90;;;;;;5007772;28;20129;-64
2022/12/29 01:30:45;;;;;;;3.63;2.10;;;7.70;99.90;;;;;;5006446;28;20045;-63
2022/12/29 01:33:10;;;;;;;5.20;1.95;;;7.80;99.90;;;;;;5019841;28;20034;-63
2022/12/29 01:35:36;;;;;;;6.30;2.08;;;7.90;99.90;;;;;;5007567;28;20030;-64
2022/12/29 01:38:02;;;;;;;4.72;1.80;;;7.90;99.90;;;;;;5005222;28;20029;-63
2022/12/29 01:40:28;;;;;;;4.75;1.83;;;8.00;99.90;;;;;;5008614;28;20044;-63
2022/12/29 01:42:54;;;;;;;2.67;1.55;;;8.00;99.90;;;;;;5005679;28;20038;-64
2022/12/29 01:45:19;;;;;;;5.70;1.80;;;8.20;99.90;;;;;;4998576;28;20134;-64
2022/12/29 01:47:56;;;;;;;3.33;1.50;;;8.50;99.90;;;;;;4989267;28;20034;-64
2022/12/29 01:50:32;;;;;;;4.50;1.67;;;8.70;99.90;;;;;;4988541;28;20026;-63
2022/12/29 01:53:02;;;;;;;10.60;3.20;;;8.70;99.90;;;;;;5008307;28;20046;-64
2022/12/29 01:55:32;;;;;;;6.93;1.60;;;8.80;99.90;;;;;;5006323;28;20127;-64
2022/12/29 01:58:01;;;;;;;6.50;1.58;;;8.80;99.90;;;;;;5008636;28;20034;-63
2022/12/29 02:00:27;;;;;;;4.22;1.67;;;8.80;99.90;;;;;;4999095;28;20042;-62
2022/12/29 02:02:53;;;;;;;6.82;1.98;;;8.80;99.90;;;;;;4989106;28;20033;-63
2022/12/29 02:05:51;;;;;;;6.95;2.78;;;8.80;99.90;;;;;;4990694;28;20045;-64
2022/12/29 02:08:17;;;;;;;12.70;3.72;;;8.90;99.90;;;;;;4995640;28;20058;-64
2022/12/29 02:10:44;;;;;;;8.40;3.22;;;9.00;99.90;;;;;;5006731;28;20109;-63
2022/12/29 02:13:09;;;;;;;7.22;2.38;;;8.90;99.90;;;;;;4995712;28;20067;-63
2022/12/29 02:15:53;;;;;;;7.53;2.35;;;8.90;99.90;;;;;;4993306;28;20452;-64
2022/12/29 02:18:32;;;;;;;9.60;2.78;;;8.90;99.90;;;;;;4997166;28;20029;-63
2022/12/29 02:21:36;;;;;;;9.43;2.13;;;8.80;99.90;;;;;;5004694;28;20450;-63
2022/12/29 02:24:20;;;;;;;17.88;4.70;;;8.80;99.90;;;;;;4993030;28;20058;-64
2022/12/29 02:26:51;;;;;;;10.98;3.45;;;8.80;99.90;;;;;;4988859;28;20128;-64
2022/12/29 02:29:36;;;;;;;9.48;3.15;;;8.80;99.90;;;;;;5000149;28;20033;-64
2022/12/29 02:32:30;;;;;;;8.30;2.97;;;8.80;99.90;;;;;;4988464;28;20479;-62
2022/12/29 02:35:30;;;;;;;15.27;5.20;;;8.80;99.90;;;;;;4995913;28;20026;-64
2022/12/29 02:37:59;;;;;;;11.65;5.20;;;8.80;99.90;;;;;;5002632;28;20023;-63
2022/12/29 02:40:31;;;;;;;10.38;3.90;;;8.70;99.90;;;;;;4998864;28;20156;-63
2022/12/29 02:43:15;;;;;;;15.00;6.65;;;8.80;99.90;;;;;;5000437;28;20042;-64
2022/12/29 02:45:46;;;;;;;14.40;5.25;;;8.80;99.90;;;;;;5000462;28;20080;-63
2022/12/29 02:48:32;;;;;;;18.45;6.82;;;8.80;99.90;;;;;;4990437;28;20412;-63
2022/12/29 02:51:17;;;;;;;18.05;5.97;;;8.80;99.90;;;;;;5008132;28;20034;-63
2022/12/29 02:56:28;;;;;;;11.80;4.60;;;8.80;99.90;;;;;;5005145;28;20044;-62
2022/12/29 02:58:54;;;;;;;11.73;3.85;;;8.70;99.90;;;;;;5016808;28;20461;-63
2022/12/29 03:01:31;;;;;;;11.43;3.70;;;8.60;99.90;;;;;;5008745;28;20049;-62
2022/12/29 03:04:39;;;;;;;10.75;2.92;;;8.60;99.90;;;;;;4994888;28;20065;-64
2022/12/29 03:07:21;;;;;;;9.15;2.90;;;8.60;99.90;;;;;;5006350;28;20052;-63
2022/12/29 03:10:11;;;;;;;4.88;1.95;;;8.60;99.90;;;;;;5009729;28;20106;-63
2022/12/29 03:16:04;;;;;;;7.07;2.63;;;8.80;99.90;;;;;;5020026;28;20037;-64
2022/12/29 03:18:48;;;;;;;6.70;2.10;;;8.70;99.90;;;;;;4991475;28;20042;-63
2022/12/29 03:21:16;;;;;;;4.45;1.98;;;8.80;99.90;;;;;;4990973;28;20034;-62
2022/12/29 03:23:47;;;;;;;6.45;2.60;;;8.90;99.90;;;;;;4990968;28;20113;-63
2022/12/29 03:26:15;;;;;;;7.05;2.42;;;8.90;99.90;;;;;;5008549;28;20084;-63
2022/12/29 03:28:57;;;;;;;6.10;2.08;;;9.10;99.90;;;;;;5009694;28;20030;-64
2022/12/29 03:31:24;;;;;;;4.50;1.88;;;9.30;99.90;;;;;;5014052;28;20034;-63
2022/12/29 03:33:51;;;;;;;7.55;2.13;;;9.40;99.90;;;;;;5009429;28;20034;-63
2022/12/29 03:36:25;;;;;;;6.13;2.10;;;9.40;99.90;;;;;;5008367;28;20038;-64
2022/12/29 03:39:02;;;;;;;3.72;1.55;;;9.30;99.90;;;;;;5004805;28;20022;-64
2022/12/29 03:41:31;;;;;;;5.35;1.80;;;9.40;99.90;;;;;;4990662;28;20034;-64
2022/12/29 03:43:57;;;;;;;7.32;1.30;;;9.50;99.90;;;;;;4996378;28;20458;-63
2022/12/29 03:46:23;;;;;;;4.80;1.60;;;9.50;99.90;;;;;;5026287;28;20065;-62
2022/12/29 03:48:48;;;;;;;3.42;1.30;;;9.50;99.90;;;;;;5024029;28;20490;-63
2022/12/29 03:51:14;;;;;;;3.08;1.40;;;9.60;99.90;;;;;;5007679;28;20042;-63
2022/12/29 03:53:39;;;;;;;3.65;1.25;;;9.50;99.90;;;;;;5009553;28;20033;-64
2022/12/29 03:56:05;;;;;;;2.92;1.30;;;9.40;99.90;;;;;;5009026;28;20042;-63
2022/12/29 03:58:31;;;;;;;3.78;1.20;;;9.40;99.90;;;;;;5008860;28;20034;-63
2022/12/29 04:00:57;;;;;;;4.07;1.33;;;9.50;99.90;;;;;;5000954;28;20038;-63
2022/12/29 04:03:22;;;;;;;2.47;1.20;;;9.40;99.90;;;;;;4989867;28;20456;-64
2022/12/29 04:05:48;;;;;;;6.80;1.05;;;9.60;99.90;;;;;;4999461;28;20050;-64
2022/12/29 04:08:14;;;;;;;4.80;1.38;;;9.60;99.90;;;;;;4990398;28;20149;-64
2022/12/29 04:10:39;;;;;;;5.07;1.20;;;9.50;99.90;;;;;;5008458;28;20493;-63
2022/12/29 04:13:05;;;;;;;7.65;1.35;;;9.60;99.90;;;;;;5010292;28;20030;-62
2022/12/29 04:15:31;;;;;;;5.05;1.17;;;9.50;99.90;;;;;;5013106;28;20198;-63
2022/12/29 04:17:56;;;;;;;4.80;1.30;;;9.50;99.90;;;;;;5010208;28;20041;-63
2022/12/29 04:23:07;;;;;;;7.38;1.20;;;9.50;99.90;;;;;;4990134;28;20061;-62
2022/12/29 04:25:33;;;;;;;3.30;1.30;;;9.60;99.90;;;;;;5000864;28;20038;-63
2022/12/29 04:27:59;;;;;;;3.58;1.42;;;9.60;99.90;;;;;;5008605;28;20056;-63
2022/12/29 04:30:25;;;;;;;5.03;1.17;;;9.60;99.90;;;;;;5006305;28;20030;-62
2022/12/29 04:32:50;;;;;;;6.47;1.17;;;9.60;99.90;;;;;;5007810;28;20025;-63
2022/12/29 04:35:16;;;;;;;3.00;1.15;;;9.50;99.90;;;;;;5006775;28;20436;-62
2022/12/29 04:37:42;;;;;;;5.15;1.27;;;9.50;99.90;;;;;;5009905;28;20072;-63
2022/12/29 04:40:08;;;;;;;3.75;1.30;;;9.40;99.90;;;;;;5004027;28;20109;-63
2022/12/29 04:42:34;;;;;;;4.75;1.30;;;9.30;99.90;;;;;;5008178;28;20030;-64
2022/12/29 04:44:59;;;;;;;5.63;1.52;;;9.30;99.90;;;;;;5006867;28;20037;-63
2022/12/29 04:47:25;;;;;;;3.65;1.50;;;9.20;99.90;;;;;;5028568;28;20033;-63
2022/12/29 04:49:51;;;;;;;4.60;1.20;;;9.10;99.90;;;;;;5013629;28;20075;-63
2022/12/29 04:52:16;;;;;;;2.83;1.20;;;9.00;99.90;;;;;;5028419;28;20059;-63
2022/12/29 04:54:42;;;;;;;4.13;1.20;;;9.00;99.90;;;;;;5014388;28;20042;-63
2022/12/29 04:57:07;;;;;;;4.93;1.52;;;8.90;99.90;;;;;;5007256;28;20030;-63
2022/12/29 04:59:33;;;;;;;2.17;1.05;;;8.90;99.90;;;;;;5008350;28;20463;-63
2022/12/29 05:01:58;;;;;;;3.53;1.38;;;8.90;99.90;;;;;;5007289;28;20033;-64
2022/12/29 05:04:24;;;;;;;5.18;1.58;;;8.90;99.90;;;;;;5004483;28;20041;-63
2022/12/29 05:06:50;;;;;;;4.40;1.13;;;8.90;99.90;;;;;;5007152;28;20506;-63
2022/12/29 05:09:15;;;;;;;7.95;1.10;;;8.90;99.90;;;;;;5003736;28;20041;-63
2022/12/29 05:11:41;;;;;;;5.45;1.25;;;9.00;99.90;;;;;;5006632;28;20045;-64
2022/12/29 05:14:07;;;;;;;4.40;1.23;;;9.00;99.90;;;;;;4998502;28;20030;-64
2022/12/29 05:16:32;;;;;;;1.88;0.98;;;9.00;99.90;;;;;;5008076;28;20499;-62
2022/12/29 05:18:58;;;;;;;3.95;1.20;;;9.10;99.90;;;;;;5008751;28;20034;-63
2022/12/29 05:21:23;;;;;;;4.30;1.38;;;9.10;99.90;;;;;;5009932;28;20030;-63
2022/12/29 05:23:49;;;;;;;4.10;1.27;;;9.00;99.90;;;;;;5005501;28;20054;-64
2022/12/29 05:26:15;;;;;;;4.78;1.13;;;9.00;99.90;;;;;;4994820;28;20431;-63
2022/12/29 05:28:40;;;;;;;7.72;1.38;;;9.00;99.90;;;;;;4993798;28;20030;-63
2022/12/29 05:31:06;;;;;;;5.40;1.10;;;9.00;99.90;;;;;;5006544;28;20100;-64
2022/12/29 05:33:31;;;;;;;3.97;1.40;;;9.00;99.90;;;;;;5006213;28;20045;-64
2022/12/29 05:36:02;;;;;;;3.58;1.20;;;9.00;99.90;;;;;;5022125;28;20116;-63
2022/12/29 05:38:28;;;;;;;3.15;1.45;;;9.00;99.90;;;;;;5011195;28;20048;-64
2022/12/29 05:40:54;;;;;;;2.95;1.30;;;9.00;99.90;;;;;;5008844;28;20789;-62
2022/12/29 05:43:19;;;;;;;5.75;1.15;;;8.90;99.90;;;;;;5001958;28;20088;-63
2022/12/29 05:45:48;;;;;;;5.10;1.45;;;8.90;99.90;;;;;;4989970;28;20069;-62
2022/12/29 05:48:14;;;;;;;3.60;1.65;;;8.80;99.90;;;;;;5007315;28;20030;-64
2022/12/29 05:50:39;;;;;;;6.50;1.80;;;8.80;99.90;;;;;;5017178;28;20045;-64
2022/12/29 05:53:05;;;;;;;4.47;1.33;;;8.70;99.90;;;;;;5005857;28;20526;-63
2022/12/29 05:55:31;;;;;;;3.78;1.60;;;8.70;99.90;;;;;;5000326;28;20537;-64
2022/12/29 05:57:56;;;;;;;7.30;1.15;;;8.60;99.90;;;;;;4989857;28;20026;-65
2022/12/29 06:00:22;;;;;;;6.97;1.80;;;8.50;99.90;;;;;;4999159;28;20101;-64
2022/12/29 06:02:48;;;;;;;3.25;1.10;;;8.50;99.90;;;;;;5003521;28;20542;-63
2022/12/29 06:05:13;;;;;;;6.13;1.30;;;8.50;99.90;;;;;;5008222;28;20018;-63
2022/12/29 06:07:39;;;;;;;4.78;1.40;;;8.50;99.90;;;;;;4990427;28;20509;-64
2022/12/29 06:10:06;;;;;;;2.47;1.27;;;8.40;99.90;;;;;;4989646;28;20541;-63
2022/12/29 06:12:31;;;;;;;3.22;1.52;;;8.20;99.90;;;;;;4991933;28;20042;-63
2022/12/29 06:14:57;;;;;;;4.75;1.40;;;7.80;99.90;;;;;;4993540;28;20076;-63
2022/12/29 06:17:22;;;;;;;8.52;2.38;;;7.60;99.90;;;;;;4998308;28;20034;-63
2022/12/29 06:19:48;;;;;;;9.32;3.20;;;7.30;99.90;;;;;;5008052;28;20034;-63
2022/12/29 06:22:14;;;;;;;9.38;3.90;;;7.10;99.90;;;;;;5013822;28;20140;-63
2022/12/29 06:24:39;;;;;;;4.03;2.28;;;6.80;99.90;;;;;;5015792;28;20054;-63
2022/12/29 06:27:05;;;;;;;8.18;2.20;;;6.70;99.90;;;;;;5009116;28;20040;-62
2022/12/29 06:29:31;;;;;;;5.20;2.53;;;6.60;99.90;;;;;;5011429;28;20022;-62
2022/12/29 06:31:58;;;;;;;6.25;2.22;;;6.50;99.90;;;;;;5005095;28;20100;-63
2022/12/29 06:34:24;;;;;;;4.82;1.92;;;6.60;99.90;;;;;;5010856;28;20033;-63
2022/12/29 06:36:51;;;;;;;3.95;1.60;;;6.60;99.90;;;;;;5011135;28;20042;-63
2022/12/29 06:39:16;;;;;;;7.93;2.30;;;6.50;99.90;;;;;;5010600;28;20038;-63
2022/12/29 06:41:42;;;;;;;13.00;4.75;;;6.50;99.90;;;;;;5002213;28;20461;-63
2022/12/29 06:44:07;;;;;;;8.57;4.13;;;6.50;99.90;;;;;;5010396;28;20026;-63
2022/12/29 06:46:33;;;;;;;5.97;2.80;;;6.40;99.90;;;;;;5009521;28;20882;-62
2022/12/29 06:48:59;;;;;;;5.38;2.78;;;6.40;99.90;;;;;;4995790;28;20045;-63
2022/12/29 06:51:24;;;;;;;6.65;2.97;;;6.30;99.90;;;;;;4998180;28;20034;-64
2022/12/29 06:53:50;;;;;;;5.45;2.80;;;6.30;99.90;;;;;;5009397;28;20400;-64
2022/12/29 06:56:15;;;;;;;6.43;2.10;;;6.20;99.90;;;;;;5002415;28;20376;-64
2022/12/29 06:58:41;;;;;;;4.13;2.03;;;6.20;99.90;;;;;;5004945;28;20446;-63
2022/12/29 07:01:07;;;;;;;4.72;2.03;;;6.30;99.90;;;;;;5006764;28;20253;-64
2022/12/29 07:03:32;;;;;;;7.82;2.00;;;6.40;99.90;;;;;;4996550;28;20035;-62
2022/12/29 07:05:58;;;;;;;4.18;1.80;;;6.40;99.90;;;;;;4998034;28;20547;-64
2022/12/29 07:08:24;;;;;;;4.82;1.80;;;6.40;99.90;;;;;;5010043;28;20486;-64
2022/12/29 07:10:50;;;;;;;7.15;2.45;;;6.50;99.90;;;;;;4996235;28;20065;-63
2022/12/29 07:13:15;;;;;;;4.97;1.92;;;6.50;99.90;;;;;;4992706;28;20038;-63
2022/12/29 07:15:41;;;;;;;5.53;2.30;;;6.50;99.90;;;;;;5006018;28;20494;-63
2022/12/29 07:18:07;;;;;;;4.00;1.98;;;6.50;99.90;;;;;;5006613;28;20037;-63
2022/12/29 07:20:32;;;;;;;6.18;2.17;;;6.40;99.90;;;;;;5008356;28;20455;-63
2022/12/29 07:22:58;;;;;;;6.40;2.30;;;6.30;99.90;;;;;;5000737;28;20128;-64
2022/12/29 07:25:24;;;;;;;19.95;8.52;;;6.20;99.90;;;;;;5002713;28;20038;-63
2022/12/29 07:27:50;;;;;;;19.55;8.77;;;6.20;99.90;;;;;;5005058;28;20053;-63
2022/12/29 07:30:15;;;;;;;47.40;19.65;;;6.10;99.90;;;;;;4996691;28;20030;-63
2022/12/29 07:32:41;;;;;;;19.85;9.32;;;6.10;99.90;;;;;;5005784;28;20034;-62
2022/12/29 07:35:07;;;;;;;12.98;5.63;;;6.10;99.90;;;;;;5004784;28;20029;-64
2022/12/29 07:37:34;;;;;;;10.75;4.40;;;6.10;99.90;;;;;;4990744;28;20038;-63
2022/12/29 07:40:01;;;;;;;9.32;5.25;;;6.20;99.90;;;;;;5007885;28;20034;-64
2022/12/29 07:42:26;;;;;;;12.32;7.03;;;6.20;99.90;;;;;;4999828;28;20030;-63
2022/12/29 07:44:52;;;;;;;9.80;3.85;;;6.10;99.90;;;;;;5009046;28;20079;-63
2022/12/29 07:47:18;;;;;;;5.10;2.58;;;6.20;99.90;;;;;;5001687;28;20042;-62
2022/12/29 07:49:43;;;;;;;6.05;2.50;;;6.20;99.90;;;;;;4989437;28;20482;-64
2022/12/29 07:52:09;;;;;;;5.85;3.17;;;6.20;99.90;;;;;;4990769;28;20042;-62
2022/12/29 07:54:35;;;;;;;7.40;2.20;;;6.20;99.90;;;;;;4990500;28;20058;-61
2022/12/29 07:57:00;;;;;;;5.25;2.30;;;6.20;99.90;;;;;;5009209;28;20030;-63
2022/12/29 07:59:26;;;;;;;7.20;2.60;;;6.20;99.90;;;;;;5003684;28;20468;-63
2022/12/29 08:01:52;;;;;;;8.15;2.33;;;6.20;99.90;;;;;;4995651;28;20029;-64
2022/12/29 08:04:18;;;;;;;3.85;1.90;;;6.30;99.90;;;;;;4998946;28;20036;-63
2022/12/29 08:06:45;;;;;;;8.15;2.17;;;6.30;99.90;;;;;;4998037;28;20031;-63
2022/12/29 08:09:10;;;;;;;4.85;2.05;;;6.30;99.90;;;;;;5003292;28;20080;-63
2022/12/29 08:11:36;;;;;;;6.95;2.17;;;6.30;99.90;;;;;;5000381;28;20034;-63
2022/12/29 08:14:02;;;;;;;10.43;2.92;;;6.30;99.90;;;;;;5007605;28;20467;-63
2022/12/29 08:16:28;;;;;;;5.75;2.30;;;6.40;99.90;;;;;;5000572;28;20037;-63
2022/12/29 08:18:53;;;;;;;8.35;2.65;;;6.40;99.90;;;;;;5004765;28;20604;-63
2022/12/29 08:21:19;;;;;;;5.85;2.33;;;6.40;99.90;;;;;;5010124;28;20030;-64
2022/12/29 08:23:45;;;;;;;5.78;2.65;;;6.50;99.90;;;;;;5004105;28;20114;-63
2022/12/29 08:26:11;;;;;;;6.68;2.47;;;6.60;99.90;;;;;;5003994;28;20479;-62
2022/12/29 08:28:36;;;;;;;7.47;2.67;;;6.70;99.90;;;;;;4989157;28;20455;-63
2022/12/29 08:31:03;;;;;;;8.35;2.40;;;6.90;99.90;;;;;;4992605;28;20061;-62
2022/12/29 08:33:29;;;;;;;8.02;2.53;;;7.00;99.90;;;;;;5000917;28;20052;-63
2022/12/29 08:36:05;;;;;;;6.60;2.95;;;7.10;99.90;;;;;;4999182;28;20065;-62
2022/12/29 08:38:31;;;;;;;7.75;2.92;;;7.20;99.90;;;;;;4989431;28;20030;-63
2022/12/29 08:40:57;;;;;;;4.88;2.33;;;7.30;99.90;;;;;;4990955;28;20037;-63
2022/12/29 08:43:24;;;;;;;3.97;1.83;;;7.50;99.90;;;;;;4989483;28;20031;-63
2022/12/29 08:45:50;;;;;;;4.00;1.95;;;7.70;99.90;;;;;;4990102;28;20045;-63
2022/12/29 08:48:19;;;;;;;4.20;2.10;;;7.90;99.90;;;;;;4990115;28;20034;-63
2022/12/29 08:50:45;;;;;;;4.50;2.10;;;8.30;99.90;;;;;;4999684;28;20034;-64
2022/12/29 08:53:11;;;;;;;4.45;2.08;;;8.50;99.90;;;;;;5009253;28;20493;-63
2022/12/29 08:55:37;;;;;;;5.75;2.55;;;8.80;99.90;;;;;;5008750;28;20042;-63
2022/12/29 08:58:02;;;;;;;5.10;1.92;;;8.90;99.90;;;;;;5009478;28;20030;-63
2022/12/29 09:00:28;;;;;;;4.88;2.00;;;9.10;99.90;;;;;;5008827;28;20040;-64
2022/12/29 09:02:53;;;;;;;3.75;1.60;;;9.40;99.90;;;;;;5000258;28;20038;-64
2022/12/29 09:05:19;;;;;;;5.05;2.13;;;9.70;99.90;;;;;;4999566;28;20356;-62
2022/12/29 09:07:45;;;;;;;4.22;1.83;;;10.00;99.90;;;;;;5005150;28;20042;-64
2022/12/29 09:10:10;;;;;;;4.78;1.73;;;10.20;99.90;;;;;;5008395;28;20353;-64
2022/12/29 09:12:36;;;;;;;3.10;1.35;;;10.30;99.90;;;;;;5005971;28;20025;-64
2022/12/29 09:15:03;;;;;;;2.85;1.45;;;10.30;99.90;;;;;;5007649;28;20067;-64
2022/12/29 09:20:26;;;;;;;4.50;1.25;;;10.50;99.90;;;;;;4988918;28;20498;-63
2022/12/29 09:22:52;;;;;;;5.50;1.42;;;10.70;99.90;;;;;;4998800;28;20073;-64
2022/12/29 09:25:18;;;;;;;5.30;1.27;;;10.90;99.90;;;;;;5005920;28;20126;-64
2022/12/29 09:27:57;;;;;;;4.57;1.48;;;10.90;99.90;;;;;;5076095;27;20425;-63
2022/12/29 09:30:23;;;;;;;5.68;1.30;;;11.00;99.90;;;;;;5076798;28;20091;-63
2022/12/29 09:32:49;;;;;;;8.75;1.40;;;11.00;99.90;;;;;;5081227;28;20047;-64
2022/12/29 09:35:16;;;;;;;2.83;1.30;;;11.00;99.90;;;;;;5073560;28;20043;-64
2022/12/29 09:37:43;;;;;;;5.28;1.40;;;11.00;99.90;;;;;;5070375;28;20392;-63
2022/12/29 09:40:33;;;;;;;6.10;1.17;;;11.10;99.90;;;;;;5085947;28;20035;-64
2022/12/29 09:43:36;;;;;;;8.00;1.58;;;11.20;99.90;;;;;;5065719;28;20031;-63
2022/12/29 09:46:24;;;;;;;4.60;1.50;;;11.30;99.90;;;;;;5003325;28;20034;-63
2022/12/29 09:49:28;;;;;;;6.85;1.48;;;11.30;99.90;;;;;;5062190;28;20060;-62
2022/12/29 09:51:59;;;;;;;2.85;1.10;;;11.30;99.90;;;;;;5065288;28;20025;-63
2022/12/29 09:54:34;;;;;;;3.08;1.33;;;11.40;99.90;;;;;;5065384;28;20029;-63
2022/12/29 09:57:00;;;;;;;2.75;1.40;;;11.30;99.90;;;;;;5065112;28;20448;-63
2022/12/29 09:59:42;;;;;;;4.38;1.30;;;11.30;99.90;;;;;;5082345;28;20032;-62
2022/12/29 10:02:29;;;;;;;5.88;1.10;;;11.20;99.90;;;;;;5085268;28;20127;-63
2022/12/29 10:04:54;;;;;;;4.40;1.10;;;11.30;99.90;;;;;;5085569;28;20056;-62
2022/12/29 10:07:44;;;;;;;6.53;1.55;;;11.30;99.90;;;;;;5085322;28;20029;-63
2022/12/29 10:10:35;;;;;;;2.72;1.20;;;11.40;99.90;;;;;;5085431;28;20036;-63
2022/12/29 10:13:06;;;;;;;2.70;1.15;;;11.40;99.90;;;;;;5085530;28;20056;-63
2022/12/29 10:15:49;;;;;;;2.90;1.25;;;11.50;99.90;;;;;;5084076;28;20578;-63
2022/12/29 10:18:44;;;;;;;6.32;1.50;;;11.50;99.90;;;;;;5085457;28;20040;-63
2022/12/29 10:21:42;;;;;;;3.95;1.23;;;11.50;99.90;;;;;;5082744;28;20603;-63
2022/12/29 10:24:11;;;;;;;5.50;1.30;;;11.70;99.90;;;;;;5074185;28;20028;-63
2022/12/29 10:26:42;;;;;;;3.47;1.45;;;11.70;99.90;;;;;;5080507;28;20147;-62
2022/12/29 10:29:20;;;;;;;4.80;1.65;;;11.70;99.90;;;;;;5075089;28;20025;-64
2022/12/29 10:32:04;;;;;;;5.07;1.30;;;11.80;99.90;;;;;;5068655;28;20424;-63
2022/12/29 10:34:33;;;;;;;3.30;1.02;;;11.80;99.90;;;;;;5080265;28;20039;-66
2022/12/29 10:37:22;;;;;;;6.57;1.65;;;11.90;99.90;;;;;;5064689;28;20040;-63
2022/12/29 10:39:53;;;;;;;4.28;1.33;;;11.90;99.90;;;;;;5057768;28;20042;-63
2022/12/29 10:42:37;;;;;;;3.75;1.33;;;11.90;99.90;;;;;;5054982;28;20032;-63
2022/12/29 10:45:05;;;;;;;3.65;1.45;;;11.90;99.90;;;;;;5050804;28;20132;-63
2022/12/29 10:47:38;;;;;;;2.70;1.02;;;11.80;99.90;;;;;;5061516;28;20028;-63
2022/12/29 10:50:05;;;;;;;4.97;1.50;;;11.80;99.90;;;;;;5062924;28;20056;-63
2022/12/29 10:52:33;;;;;;;5.40;1.38;;;11.90;99.90;;;;;;5066861;28;20040;-62
2022/12/29 10:55:05;;;;;;;7.88;3.40;;;11.90;99.90;;;;;;5056383;28;20021;-63
2022/12/29 10:57:40;;;;;;;5.53;1.33;;;11.80;99.90;;;;;;5051360;28;20481;-64
2022/12/29 11:00:20;;;;;;;5.05;1.52;;;11.80;99.90;;;;;;5056812;28;20061;-63
2022/12/29 11:03:07;;;;;;;4.35;1.48;;;11.80;99.90;;;;;;5051072;28;20371;-63
2022/12/29 11:05:40;;;;;;;4.38;1.50;;;11.90;99.90;;;;;;5067172;28;20107;-62
2022/12/29 11:08:12;;;;;;;5.93;2.00;;;11.90;99.90;;;;;;5071003;28;20020;-63
2022/12/29 11:10:43;;;;;;;5.47;1.30;;;11.90;99.90;;;;;;5053084;28;20032;-63
2022/12/29 11:13:24;;;;;;;6.22;1.33;;;11.90;99.90;;;;;;5052579;28;20021;-63
2022/12/29 11:15:51;;;;;;;4.45;1.33;;;11.90;99.90;;;;;;5068784;28;20032;-63
2022/12/29 11:18:36;;;;;;;3.78;1.48;;;12.00;99.90;;;;;;5065855;28;20033;-63
2022/12/29 11:21:05;;;;;;;2.65;1.15;;;12.30;99.90;;;;;;5050591;28;20028;-63
2022/12/29 11:23:40;;;;;;;5.43;1.60;;;12.50;99.90;;;;;;5062595;28;20409;-64
2022/12/29 11:26:17;;;;;;;4.35;1.35;;;12.50;99.90;;;;;;5077851;28;20051;-63
2022/12/29 11:29:03;;;;;;;5.30;1.20;;;12.60;99.90;;;;;;5065718;28;20033;-63
2022/12/29 11:31:29;;;;;;;3.10;1.50;;;12.70;99.90;;;;;;5051651;28;20161;-63
2022/12/29 11:33:55;;;;;;;3.60;1.30;;;12.80;99.90;;;;;;5056883;28;20100;-63
2022/12/29 11:36:23;;;;;;;3.63;1.63;;;12.70;99.90;;;;;;5070592;28;20036;-63
2022/12/29 11:38:52;;;;;;;5.28;1.30;;;12.80;99.90;;;;;;5058449;28;20025;-64
2022/12/29 11:41:35;;;;;;;2.30;1.50;;;12.80;99.90;;;;;;5063765;28;20039;-64
2022/12/29 11:44:05;;;;;;;4.30;1.17;;;12.60;99.90;;;;;;5068399;28;20405;-63
2022/12/29 11:46:38;;;;;;;8.70;1.73;;;12.40;99.90;;;;;;5069686;28;20036;-63
2022/12/29 11:49:04;;;;;;;5.47;1.20;;;12.40;99.90;;;;;;5063911;28;20318;-62
2022/12/29 11:51:33;;;;;;;2.70;1.38;;;12.30;99.90;;;;;;5049587;28;20048;-63
2022/12/29 11:54:02;;;;;;;2.60;1.33;;;12.20;99.90;;;;;;5051046;28;20032;-62
2022/12/29 11:56:41;;;;;;;3.05;1.50;;;12.20;99.90;;;;;;5050324;28;20029;-63
2022/12/29 11:59:36;;;;;;;7.28;1.50;;;12.10;99.90;;;;;;5049115;28;20041;-63
2022/12/29 12:02:16;;;;;;;6.70;1.55;;;12.10;99.90;;;;;;5049560;28;20438;-63
2022/12/29 12:04:42;;;;;;;5.05;1.30;;;12.00;99.90;;;;;;5048951;28;20032;-64
2022/12/29 12:07:07;;;;;;;5.78;1.30;;;12.00;99.90;;;;;;5050539;28;20025;-63
2022/12/29 12:09:43;;;;;;;5.43;1.23;;;12.10;99.90;;;;;;5056941;28;20064;-64
2022/12/29 12:12:22;;;;;;;3.17;1.23;;;12.10;99.90;;;;;;5049433;28;20051;-64
2022/12/29 12:14:59;;;;;;;3.83;1.48;;;12.00;99.90;;;;;;5048711;28;20059;-62
2022/12/29 12:17:38;;;;;;;2.30;1.30;;;12.00;99.90;;;;;;5060137;28;20548;-63
2022/12/29 12:20:54;;;;;;;4.63;1.45;;;12.00;99.90;;;;;;5065402;28;20483;-62
2022/12/29 12:24:02;;;;;;;4.80;1.42;;;12.00;99.90;;;;;;5031202;28;20069;-63
2022/12/29 12:26:46;;;;;;;6.30;1.52;;;11.90;99.90;;;;;;5049530;28;20064;-63
2022/12/29 12:29:38;;;;;;;2.03;1.20;;;11.80;99.90;;;;;;5057756;28;20043;-63
2022/12/29 12:32:19;;;;;;;3.28;1.55;;;11.80;99.90;;;;;;5052407;28;20108;-63
2022/12/29 12:34:46;;;;;;;1.95;0.90;;;11.80;99.90;;;;;;5048838;28;20029;-63
2022/12/29 12:37:27;;;;;;;2.88;1.15;;;11.80;99.90;;;;;;5049346;28;20029;-63
2022/12/29 12:40:01;;;;;;;3.40;1.10;;;11.80;99.90;;;;;;5049657;28;20043;-63
2022/12/29 12:42:45;;;;;;;4.03;1.67;;;11.80;99.90;;;;;;5055772;28;20033;-64
2022/12/29 12:45:36;;;;;;;3.50;1.50;;;11.70;99.90;;;;;;5049151;28;20033;-63
2022/12/29 12:48:08;;;;;;;3.33;1.50;;;11.70;99.90;;;;;;5036136;28;20062;-62
2022/12/29 12:50:50;;;;;;;3.25;1.20;;;11.70;99.90;;;;;;5055091;28;20056;-64
2022/12/29 12:53:24;;;;;;;6.22;1.50;;;11.60;99.90;;;;;;5062497;28;20028;-64
2022/12/29 12:56:07;;;;;;;4.55;1.33;;;11.60;99.90;;;;;;5069070;28;20060;-63
2022/12/29 12:58:59;;;;;;;2.67;1.33;;;11.50;99.90;;;;;;5066731;28;20024;-63
2022/12/29 13:02:21;;;;;;;6.82;1.45;;;11.60;99.90;;;;;;5060648;28;20499;-64
2022/12/29 13:04:52;;;;;;;3.65;1.45;;;11.50;99.90;;;;;;4993843;28;20046;-64
2022/12/29 13:07:17;;;;;;;;;;;11.50;99.90;;;;;;4994458;28;20049;-64
2022/12/29 13:09:53;;;;;;;2.53;1.05;;;11.50;99.90;;;;;;5025097;28;20313;-63
2022/12/29 13:12:37;;;;;;;3.25;1.67;;;11.40;99.90;;;;;;5005981;28;20847;-64
2022/12/29 13:15:30;;;;;;;4.93;1.30;;;11.30;99.90;;;;;;4999810;28;20121;-64
2022/12/29 13:18:02;;;;;;;7.13;2.00;;;11.30;99.90;;;;;;4998165;28;20056;-63
2022/12/29 13:20:43;;;;;;;4.35;1.70;;;11.20;99.90;;;;;;4995937;28;20046;-63
2022/12/29 13:23:37;;;;;;;3.00;1.27;;;11.20;99.90;;;;;;5004221;28;20038;-64
2022/12/29 13:26:20;;;;;;;6.63;1.63;;;11.10;99.90;;;;;;5004198;28;20062;-63
2022/12/29 13:28:56;;;;;;;3.75;1.40;;;11.10;99.90;;;;;;5004199;28;20038;-63
2022/12/29 13:31:42;;;;;;;4.93;1.58;;;11.10;99.90;;;;;;5003771;28;20508;-62
2022/12/29 13:34:23;;;;;;;5.05;2.05;;;11.10;99.90;;;;;;4989019;28;20034;-64
2022/12/29 13:36:54;;;;;;;4.18;1.98;;;11.10;99.90;;;;;;5052556;28;20028;-64
2022/12/29 13:39:26;;;;;;;4.97;1.85;;;11.10;99.90;;;;;;5067768;28;20048;-64
2022/12/29 13:41:54;;;;;;;3.22;1.45;;;11.10;99.90;;;;;;5065872;28;20024;-64
2022/12/29 13:44:34;;;;;;;4.53;1.20;;;11.10;99.90;;;;;;5061085;28;20103;-63
2022/12/29 13:47:18;;;;;;;4.40;1.13;;;11.20;99.90;;;;;;5060224;28;20655;-63
2022/12/29 13:49:45;;;;;;;7.68;1.45;;;11.10;99.90;;;;;;5053315;28;20028;-63
2022/12/29 13:52:16;;;;;;;3.78;1.40;;;11.10;99.90;;;;;;5052279;28;20021;-63
2022/12/29 13:54:42;;;;;;;3.85;1.48;;;11.00;99.90;;;;;;5046913;28;20029;-62